Time;durP1;ratioP1;P1;durP2;ratioP2;P2;SDS_P1;SDS_P2;PMS_P1;PMS_P2;Temp;Humidity;BMP_temperature;BMP_pressure;BME280_temperature;BME280_humidity;BME280_pressure;Samples;Min_cycle;Max_cycle;Signal;HPM_P1;HPM_P2
2022/05/25 00:00:47;;;;;;;2.93;0.73;;;;;;;;;;4919563;29;20545;-87
2022/05/25 00:03:13;;;;;;;2.30;0.80;;;14.20;99.90;;;;;;4919398;29;20545;-87
2022/05/25 00:05:38;;;;;;;0.90;0.80;;;14.30;99.90;;;;;;4926653;29;20891;-83
2022/05/25 00:08:05;;;;;;;2.70;0.70;;;14.30;99.90;;;;;;4918307;29;20193;-84
2022/05/25 00:10:31;;;;;;;1.33;1.03;;;14.30;99.90;;;;;;4912390;29;20532;-86
2022/05/25 00:12:56;;;;;;;0.90;0.80;;;14.50;99.90;;;;;;4919152;29;20449;-85
2022/05/25 00:15:22;;;;;;;6.73;0.90;;;14.50;99.90;;;;;;4922331;29;20469;-84
2022/05/25 00:17:48;;;;;;;1.50;0.87;;;;;;;;;;4920358;29;20193;-83
2022/05/25 00:20:14;;;;;;;3.03;0.90;;;14.50;99.90;;;;;;4918897;29;20296;-84
2022/05/25 00:22:50;;;;;;;0.90;0.80;;;14.60;99.90;;;;;;4922288;29;20440;-83
2022/05/25 00:25:20;;;;;;;2.47;0.90;;;14.50;99.90;;;;;;4920962;29;20508;-84
2022/05/25 00:27:47;;;;;;;0.73;0.73;;;;;;;;;;4922908;29;20444;-85
2022/05/25 00:30:13;;;;;;;1.73;0.90;;;14.50;99.90;;;;;;4919062;29;20464;-85
2022/05/25 00:32:40;;;;;;;1.07;0.80;;;14.50;99.90;;;;;;4918493;29;20532;-86
2022/05/25 00:35:07;;;;;;;2.50;0.80;;;14.50;99.90;;;;;;4923192;29;20465;-85
2022/05/25 00:37:32;;;;;;;1.00;0.90;;;14.30;99.90;;;;;;4923302;29;20430;-85
2022/05/25 00:39:58;;;;;;;1.00;0.90;;;;;;;;;;4921375;29;21317;-85
2022/05/25 00:42:25;;;;;;;1.80;0.90;;;;;;;;;;4922668;29;20821;-85
2022/05/25 00:44:50;;;;;;;2.00;0.80;;;13.90;99.90;;;;;;4922426;29;20528;-87
2022/05/25 00:47:22;;;;;;;6.97;1.00;;;13.90;99.90;;;;;;4923857;29;20593;-85
2022/05/25 00:49:48;;;;;;;1.57;1.10;;;13.90;99.90;;;;;;4922451;29;20212;-85
2022/05/25 00:52:15;;;;;;;2.00;1.17;;;13.80;99.90;;;;;;4928138;29;20989;-85
2022/05/25 00:54:49;;;;;;;3.50;0.80;;;13.80;99.90;;;;;;4922384;29;20241;-85
2022/05/25 00:57:26;;;;;;;3.37;0.87;;;13.70;99.90;;;;;;4922655;29;22831;-85
2022/05/25 01:00:09;;;;;;;3.08;0.80;;;13.60;99.90;;;;;;4932204;29;20460;-86
2022/05/25 01:02:38;;;;;;;1.83;0.83;;;13.70;99.90;;;;;;4923229;29;20362;-86
2022/05/25 01:05:05;;;;;;;1.03;0.63;;;13.60;99.90;;;;;;4922959;29;20453;-85
2022/05/25 01:07:56;;;;;;;1.37;0.73;;;13.50;99.90;;;;;;4932403;29;20449;-84
2022/05/25 01:10:35;;;;;;;1.67;0.80;;;13.60;99.90;;;;;;4929060;29;20456;-84
2022/05/25 01:13:00;;;;;;;1.40;0.77;;;;;;;;;;4923436;29;20192;-88
2022/05/25 01:15:51;;;;;;;0.73;0.63;;;13.70;99.90;;;;;;4926764;29;20527;-84
2022/05/25 01:18:35;;;;;;;1.63;0.75;;;13.70;99.90;;;;;;4923666;29;20457;-82
2022/05/25 01:21:01;;;;;;;3.28;0.90;;;;;;;;;;4922032;29;20908;-83
2022/05/25 01:23:35;;;;;;;2.13;0.67;;;13.80;99.90;;;;;;4924383;29;20212;-83
2022/05/25 01:26:09;;;;;;;3.30;0.60;;;13.80;99.90;;;;;;4931773;29;20495;-85
2022/05/25 01:29:07;;;;;;;1.03;0.53;;;13.80;99.90;;;;;;4923668;29;20451;-85
2022/05/25 01:31:46;;;;;;;2.13;0.80;;;13.70;99.90;;;;;;4930482;29;20745;-84
2022/05/25 01:34:29;;;;;;;1.00;0.70;;;13.70;99.90;;;;;;4922994;29;21447;-84
2022/05/25 01:37:06;;;;;;;6.93;1.10;;;13.70;99.90;;;;;;4923957;29;20482;-84
2022/05/25 01:39:38;;;;;;;1.40;1.00;;;13.70;99.90;;;;;;4924437;29;20484;-85
2022/05/25 01:42:21;;;;;;;4.55;1.02;;;13.70;99.90;;;;;;4936907;28;20452;-85
2022/05/25 01:44:51;;;;;;;1.80;1.07;;;13.70;99.90;;;;;;4932039;29;20240;-85
2022/05/25 01:47:18;;;;;;;1.23;0.90;;;13.50;99.90;;;;;;4923742;29;20441;-85
2022/05/25 01:49:50;;;;;;;3.00;0.50;;;13.40;99.90;;;;;;4927094;29;20268;-85
2022/05/25 01:52:21;;;;;;;0.65;0.60;;;13.40;99.90;;;;;;4927746;29;20453;-85
2022/05/25 01:54:54;;;;;;;1.08;0.70;;;13.40;99.90;;;;;;4933878;29;20198;-85
2022/05/25 01:57:24;;;;;;;2.15;0.60;;;13.40;99.90;;;;;;4927071;29;20554;-85
2022/05/25 01:59:50;;;;;;;0.95;0.70;;;;;;;;;;4925137;29;20241;-85
2022/05/25 02:05:03;;;;;;;3.25;0.90;;;13.40;99.90;;;;;;4927694;29;20240;-85
2022/05/25 02:07:47;;;;;;;1.27;0.70;;;13.30;99.90;;;;;;4924415;29;20193;-84
2022/05/25 02:10:19;;;;;;;2.22;0.93;;;13.30;99.90;;;;;;4926498;29;20235;-84
2022/05/25 02:13:19;;;;;;;3.58;0.60;;;13.30;99.90;;;;;;4929609;29;20730;-85
2022/05/25 02:16:29;;;;;;;1.83;0.65;;;13.30;99.90;;;;;;4926544;29;20240;-85
2022/05/25 02:18:55;;;;;;;0.70;0.70;;;;;;;;;;4912064;29;20194;-86
2022/05/25 02:21:47;;;;;;;8.03;1.00;;;13.20;99.90;;;;;;4934354;29;20320;-86
2022/05/25 02:24:34;;;;;;;1.00;0.60;;;13.20;99.90;;;;;;4935064;29;20442;-85
2022/05/25 02:27:21;;;;;;;1.80;1.30;;;13.20;99.90;;;;;;4933828;29;20279;-86
2022/05/25 02:29:50;;;;;;;1.20;0.60;;;13.20;99.90;;;;;;4926968;29;20206;-86
2022/05/25 02:32:24;;;;;;;4.97;0.85;;;13.20;99.90;;;;;;4927969;29;20185;-87
2022/05/25 02:34:52;;;;;;;3.75;0.90;;;13.20;99.90;;;;;;4935160;29;20201;-83
2022/05/25 02:37:22;;;;;;;2.35;1.30;;;13.30;99.90;;;;;;4924567;29;20190;-82
2022/05/25 02:39:50;;;;;;;1.95;0.85;;;13.20;99.90;;;;;;4926854;29;20216;-83
2022/05/25 02:42:16;;;;;;;1.45;0.75;;;;;;;;;;4924198;29;20182;-83
2022/05/25 02:44:43;;;;;;;0.70;0.68;;;13.20;99.90;;;;;;4926370;29;20217;-83
2022/05/25 02:47:09;;;;;;;1.60;1.23;;;13.20;99.90;;;;;;4922745;29;20961;-84
2022/05/25 02:49:35;;;;;;;2.35;0.93;;;13.20;99.90;;;;;;4923279;29;20201;-85
2022/05/25 02:52:01;;;;;;;0.70;0.70;;;13.20;99.90;;;;;;4923080;29;20200;-85
2022/05/25 02:54:27;;;;;;;2.50;1.00;;;13.30;99.90;;;;;;4925273;29;20209;-85
2022/05/25 02:56:53;;;;;;;4.43;0.70;;;;;;;;;;4922561;29;20469;-85
2022/05/25 02:59:19;;;;;;;2.77;1.17;;;;;;;;;;4929524;29;20260;-85
2022/05/25 03:01:44;;;;;;;1.33;0.90;;;13.20;99.90;;;;;;4926538;29;20663;-85
2022/05/25 03:04:10;;;;;;;2.40;0.97;;;;;;;;;;4922763;29;20469;-84
2022/05/25 03:06:36;;;;;;;4.13;1.07;;;13.20;99.90;;;;;;4922513;29;20557;-84
2022/05/25 03:09:02;;;;;;;3.20;2.40;;;13.10;99.90;;;;;;4922634;29;20437;-83
2022/05/25 03:11:27;;;;;;;2.65;0.90;;;13.20;99.90;;;;;;4922303;29;20188;-85
2022/05/25 03:13:53;;;;;;;4.40;1.20;;;13.10;99.90;;;;;;4926208;29;20209;-83
2022/05/25 03:16:21;;;;;;;3.33;1.40;;;13.10;99.90;;;;;;4921236;29;20561;-83
2022/05/25 03:18:47;;;;;;;3.40;1.20;;;13.10;99.90;;;;;;4919373;29;20834;-82
2022/05/25 03:21:13;;;;;;;3.45;1.35;;;13.10;99.90;;;;;;4918035;29;20256;-83
2022/05/25 03:23:38;;;;;;;2.30;1.00;;;13.10;99.90;;;;;;4923834;29;20189;-85
2022/05/25 03:26:04;;;;;;;1.47;1.30;;;;;;;;;;4921568;29;20193;-84
2022/05/25 03:28:30;;;;;;;2.30;1.60;;;13.20;99.90;;;;;;4923582;29;20181;-86
2022/05/25 03:30:55;;;;;;;1.43;1.30;;;13.20;99.90;;;;;;4928431;29;20477;-85
2022/05/25 03:33:21;;;;;;;1.80;1.03;;;13.30;99.90;;;;;;4922996;29;20182;-85
2022/05/25 03:35:47;;;;;;;2.83;1.00;;;;;;;;;;4933875;29;20207;-85
2022/05/25 03:38:13;;;;;;;0.73;0.70;;;13.10;99.90;;;;;;4924021;29;20181;-85
2022/05/25 03:40:39;;;;;;;1.50;1.20;;;13.10;99.90;;;;;;4927545;29;20454;-86
2022/05/25 03:43:09;;;;;;;0.98;0.70;;;13.00;99.90;;;;;;4925799;29;20182;-85
2022/05/25 03:45:35;;;;;;;3.10;0.80;;;13.10;99.90;;;;;;4934686;29;20327;-87
2022/05/25 03:48:07;;;;;;;1.30;0.73;;;;;;;;;;4927015;29;20566;-86
2022/05/25 03:50:35;;;;;;;0.63;0.50;;;13.00;99.90;;;;;;4935989;29;20213;-87
2022/05/25 03:53:01;;;;;;;1.05;0.60;;;13.00;99.90;;;;;;4944013;29;20180;-87
2022/05/25 03:55:27;;;;;;;0.80;0.70;;;13.00;99.90;;;;;;4943760;29;20291;-87
2022/05/25 03:57:52;;;;;;;1.20;1.00;;;12.90;99.90;;;;;;4937418;29;20185;-88
2022/05/25 04:00:18;;;;;;;1.00;0.70;;;13.00;99.90;;;;;;4933235;29;20193;-84
2022/05/25 04:02:46;;;;;;;8.13;0.90;;;13.00;99.90;;;;;;4923240;29;20774;-84
2022/05/25 04:05:12;;;;;;;4.00;1.00;;;13.00;99.90;;;;;;4923000;29;20706;-86
2022/05/25 04:07:39;;;;;;;8.73;1.10;;;13.00;99.90;;;;;;4923539;29;20222;-84
2022/05/25 04:10:06;;;;;;;1.23;0.70;;;13.10;99.90;;;;;;4923681;29;20460;-87
2022/05/25 04:12:31;;;;;;;2.97;0.80;;;13.20;99.90;;;;;;4923965;29;20248;-87
2022/05/25 04:14:57;;;;;;;1.80;0.70;;;13.20;99.90;;;;;;4923530;29;20208;-87
2022/05/25 04:17:23;;;;;;;6.93;0.83;;;;;;;;;;4922402;29;20835;-87
2022/05/25 04:19:50;;;;;;;1.13;0.87;;;13.20;99.90;;;;;;4921669;29;20212;-87
2022/05/25 04:22:16;;;;;;;2.95;0.77;;;13.20;99.90;;;;;;4930296;29;20447;-88
2022/05/25 04:24:41;;;;;;;0.50;0.50;;;13.20;99.90;;;;;;4925153;29;20208;-86
2022/05/25 04:27:07;;;;;;;1.43;0.97;;;13.20;99.90;;;;;;4922598;29;20181;-86
2022/05/25 04:29:36;;;;;;;2.10;1.13;;;13.20;99.90;;;;;;4922414;29;20208;-86
2022/05/25 04:32:02;;;;;;;1.10;0.80;;;13.20;99.90;;;;;;4929952;29;21200;-86
2022/05/25 04:34:28;;;;;;;1.63;0.65;;;13.30;99.90;;;;;;4940579;29;20219;-85
2022/05/25 04:36:53;;;;;;;0.97;0.67;;;13.30;99.90;;;;;;4933819;29;20196;-86
2022/05/25 04:39:19;;;;;;;2.30;1.10;;;;;;;;;;4933526;29;20201;-86
2022/05/25 04:41:45;;;;;;;1.80;1.10;;;13.50;99.90;;;;;;4932917;29;20811;-87
2022/05/25 04:44:10;;;;;;;1.40;0.90;;;13.40;99.90;;;;;;4922561;29;21567;-85
2022/05/25 04:46:36;;;;;;;2.50;0.90;;;;;;;;;;4918362;29;20186;-86
2022/05/25 04:49:02;;;;;;;1.97;1.00;;;13.50;99.90;;;;;;4914680;29;20237;-86
2022/05/25 04:51:28;;;;;;;5.50;0.80;;;13.50;99.90;;;;;;4923186;29;20450;-85
2022/05/25 04:53:54;;;;;;;0.80;0.80;;;13.50;99.90;;;;;;4915088;29;20280;-85
2022/05/25 04:57:20;;;;;;;1.70;0.70;;;13.60;99.90;;;;;;4917746;29;20693;-86
2022/05/25 04:59:14;;;;;;;1.98;0.95;;;13.60;99.90;;;;;;4913921;29;20288;-86
2022/05/25 05:01:39;;;;;;;1.27;0.80;;;13.60;99.90;;;;;;4920501;29;20219;-86
2022/05/25 05:04:05;;;;;;;3.43;0.90;;;13.70;99.90;;;;;;4918409;29;20205;-86
2022/05/25 05:06:30;;;;;;;1.80;0.63;;;13.90;99.90;;;;;;4922528;29;20186;-86
2022/05/25 05:08:56;;;;;;;1.77;0.80;;;14.20;99.90;;;;;;4923802;29;20296;-86
2022/05/25 05:11:22;;;;;;;1.00;0.70;;;;;;;;;;4923157;29;20219;-86
2022/05/25 05:13:47;;;;;;;1.70;0.70;;;14.80;99.90;;;;;;4922174;29;20182;-87
2022/05/25 05:16:15;;;;;;;2.70;0.80;;;15.30;99.90;;;;;;4920859;29;20540;-86
2022/05/25 05:18:44;;;;;;;1.73;0.77;;;15.80;99.90;;;;;;4918274;29;20269;-86
2022/05/25 05:21:10;;;;;;;1.97;0.90;;;16.80;99.90;;;;;;4923375;29;20460;-86
2022/05/25 05:23:38;;;;;;;1.93;0.70;;;19.10;99.90;;;;;;4924182;29;20445;-86
2022/05/25 05:26:05;;;;;;;25.93;1.37;;;;;;;;;;4923790;29;20452;-86
2022/05/25 05:28:32;;;;;;;1.43;0.90;;;17.40;99.90;;;;;;4921863;29;20946;-86
2022/05/25 05:30:59;;;;;;;1.10;0.90;;;17.40;99.90;;;;;;4923714;29;20496;-86
2022/05/25 05:33:27;;;;;;;1.83;0.77;;;17.00;99.90;;;;;;4926244;29;20433;-87
2022/05/25 05:36:18;;;;;;;2.70;1.03;;;16.70;99.90;;;;;;4919699;29;20489;-87
2022/05/25 05:39:08;;;;;;;2.50;0.70;;;16.80;99.90;;;;;;4920354;29;20499;-86
2022/05/25 05:41:41;;;;;;;2.70;1.20;;;17.80;99.90;;;;;;4915062;29;21325;-86
2022/05/25 05:44:09;;;;;;;0.93;0.90;;;21.00;99.90;;;;;;4917814;29;20919;-87
2022/05/25 05:46:36;;;;;;;0.87;0.87;;;;;;;;;;4920525;29;20445;-87
2022/05/25 05:49:05;;;;;;;4.03;1.00;;;25.30;92.60;;;;;;4917787;29;20468;-87
2022/05/25 05:51:31;;;;;;;1.93;1.03;;;;;;;;;;4919843;29;21337;-87
2022/05/25 05:53:57;;;;;;;1.57;1.10;;;;;;;;;;4924403;29;20519;-87
2022/05/25 05:56:23;;;;;;;4.57;1.90;;;;;;;;;;4922260;29;20435;-87
2022/05/25 05:58:49;;;;;;;2.07;1.00;;;;;;;;;;4921458;29;20451;-86
2022/05/25 06:01:15;;;;;;;1.20;1.10;;;;;;;;;;4920265;29;20462;-87
2022/05/25 06:03:41;;;;;;;0.93;0.70;;;;;;;;;;4920106;29;20940;-87
2022/05/25 06:06:07;;;;;;;5.40;1.07;;;;;;;;;;4927250;29;20469;-87
2022/05/25 06:08:33;;;;;;;4.83;0.90;;;;;;;;;;4928327;29;21321;-86
2022/05/25 06:10:59;;;;;;;2.60;1.10;;;;;;;;;;4917747;29;20470;-87
2022/05/25 06:13:25;;;;;;;4.50;1.40;;;;;;;;;;4920825;29;20526;-86
2022/05/25 06:21:23;;;;;;;6.67;1.30;;;;;;;;;;4915722;29;20450;-86
2022/05/25 06:23:49;;;;;;;2.90;1.30;;;;;;;;;;4924234;29;20487;-86
2022/05/25 06:26:16;;;;;;;1.97;1.23;;;;;;;;;;4919657;29;20438;-87
2022/05/25 06:28:44;;;;;;;1.43;1.10;;;27.20;78.10;;;;;;4920979;29;21275;-86
2022/05/25 06:31:11;;;;;;;3.07;1.10;;;28.40;69.20;;;;;;4923976;29;20472;-86
2022/05/25 06:33:38;;;;;;;1.73;1.00;;;;;;;;;;4918620;29;20439;-86
2022/05/25 06:36:16;;;;;;;2.63;1.10;;;25.40;74.10;;;;;;4918014;29;20477;-86
2022/05/25 06:38:42;;;;;;;7.73;2.07;;;;;;;;;;4921145;29;20487;-86
2022/05/25 06:41:08;;;;;;;1.73;1.20;;;;;;;;;;4916755;29;20458;-86
2022/05/25 06:43:34;;;;;;;1.07;0.97;;;;;;;;;;4917416;29;20524;-86
2022/05/25 06:46:00;;;;;;;1.63;1.50;;;;;;;;;;4919435;29;21266;-85
2022/05/25 06:48:25;;;;;;;1.73;1.20;;;27.50;78.70;;;;;;4915625;29;20451;-87
2022/05/25 06:50:51;;;;;;;2.80;1.10;;;;;;;;;;4922285;29;21031;-86
2022/05/25 06:53:17;;;;;;;1.47;1.20;;;;;;;;;;4918494;29;20212;-85
2022/05/25 06:55:43;;;;;;;1.90;1.70;;;;;;;;;;4918088;29;20686;-86
2022/05/25 06:58:09;;;;;;;2.50;0.97;;;;;;;;;;4915352;29;20441;-86
2022/05/25 07:00:35;;;;;;;2.60;1.30;;;;;;;;;;4918300;29;20482;-86
2022/05/25 07:03:05;;;;;;;3.60;1.40;;;26.80;73.00;;;;;;4916319;29;20481;-86
2022/05/25 07:05:32;;;;;;;2.67;1.40;;;;;;;;;;4917959;29;20968;-86
2022/05/25 07:07:58;;;;;;;2.00;1.27;;;;;;;;;;4926757;29;20447;-87
2022/05/25 07:10:24;;;;;;;1.40;1.30;;;;;;;;;;4922139;29;20840;-87
2022/05/25 07:12:50;;;;;;;1.67;1.17;;;;;;;;;;4921110;29;20434;-87
2022/05/25 07:15:16;;;;;;;1.37;1.20;;;;;;;;;;4921202;29;20484;-87
2022/05/25 07:17:42;;;;;;;4.30;1.33;;;;;;;;;;4928278;29;20449;-87
2022/05/25 07:20:09;;;;;;;4.00;1.30;;;27.20;70.50;;;;;;4920539;29;20818;-86
2022/05/25 07:22:35;;;;;;;1.97;1.50;;;;;;;;;;4918496;29;20442;-86
2022/05/25 07:25:01;;;;;;;2.40;1.70;;;;;;;;;;4928433;29;20420;-86
2022/05/25 07:27:27;;;;;;;2.37;1.40;;;;;;;;;;4921833;29;20444;-85
2022/05/25 07:29:53;;;;;;;2.93;1.83;;;;;;;;;;4919634;29;20501;-87
2022/05/25 07:32:20;;;;;;;4.50;2.73;;;31.70;58.70;;;;;;4918943;29;21605;-86
2022/05/25 07:34:50;;;;;;;4.80;2.63;;;30.40;56.40;;;;;;4917716;29;20475;-87
2022/05/25 07:37:21;;;;;;;2.87;2.70;;;28.70;58.40;;;;;;4930509;28;20873;-86
2022/05/25 07:39:52;;;;;;;4.47;2.73;;;27.20;60.20;;;;;;4920326;29;21142;-86
2022/05/25 07:42:20;;;;;;;6.30;2.57;;;27.80;59.10;;;;;;4927474;29;20460;-87
2022/05/25 07:44:56;;;;;;;2.33;2.13;;;27.90;59.60;;;;;;4920123;29;20483;-87
2022/05/25 07:47:22;;;;;;;4.87;2.70;;;28.10;58.30;;;;;;4919984;29;20492;-86
2022/05/25 07:49:48;;;;;;;3.00;2.60;;;;;;;;;;4918148;29;20472;-87
2022/05/25 07:52:14;;;;;;;3.03;1.53;;;;;;;;;;4915398;29;20439;-86
2022/05/25 07:54:41;;;;;;;1.87;1.77;;;24.40;66.50;;;;;;4923898;29;20492;-86
2022/05/25 07:57:07;;;;;;;2.60;1.53;;;24.60;74.70;;;;;;4920526;29;20422;-86
2022/05/25 07:59:33;;;;;;;4.67;2.10;;;;;;;;;;4913500;29;20517;-86
2022/05/25 08:07:35;;;;;;;3.57;1.80;;;28.70;58.10;;;;;;4916210;29;20492;-87
2022/05/25 08:10:06;;;;;;;2.03;1.93;;;26.50;61.00;;;;;;4915865;29;20945;-86
2022/05/25 08:12:32;;;;;;;2.10;1.57;;;;;;;;;;4919136;29;20203;-84
2022/05/25 08:15:00;;;;;;;2.70;1.47;;;;;;;;;;4920428;29;20458;-85
2022/05/25 08:17:25;;;;;;;3.13;1.70;;;23.70;70.00;;;;;;4927235;29;20422;-88
2022/05/25 08:19:51;;;;;;;2.93;1.43;;;23.90;65.60;;;;;;4926614;29;20461;-86
2022/05/25 08:22:16;;;;;;;3.50;1.37;;;22.30;70.80;;;;;;4924674;29;20178;-85
2022/05/25 08:24:43;;;;;;;2.00;1.03;;;22.20;76.00;;;;;;4919332;29;20852;-86
2022/05/25 08:27:08;;;;;;;1.60;1.17;;;22.10;76.30;;;;;;4926646;29;20713;-86
2022/05/25 08:29:34;;;;;;;1.53;1.30;;;20.50;74.70;;;;;;4926263;29;20583;-85
2022/05/25 08:31:59;;;;;;;2.07;1.40;;;20.10;80.30;;;;;;4920845;29;20194;-85
2022/05/25 08:34:26;;;;;;;1.73;0.87;;;22.60;77.20;;;;;;4927409;29;20241;-84
2022/05/25 08:36:52;;;;;;;4.17;1.20;;;22.50;77.70;;;;;;4920632;29;20209;-83
2022/05/25 08:39:18;;;;;;;3.40;1.30;;;;;;;;;;4920916;29;20471;-83
2022/05/25 08:41:47;;;;;;;2.43;1.20;;;21.80;71.20;;;;;;4923237;29;20538;-85
2022/05/25 08:44:13;;;;;;;7.30;1.67;;;22.50;78.70;;;;;;4921477;29;20450;-83
2022/05/25 08:46:39;;;;;;;2.40;1.43;;;25.30;78.10;;;;;;4922879;29;20509;-83
2022/05/25 08:49:16;;;;;;;3.00;1.20;;;25.60;65.30;;;;;;4921172;29;20912;-82
2022/05/25 08:51:47;;;;;;;3.30;1.20;;;25.60;66.80;;;;;;4918095;29;20540;-82
2022/05/25 08:54:13;;;;;;;3.47;1.40;;;25.20;63.80;;;;;;4921421;29;20476;-81
2022/05/25 08:56:44;;;;;;;5.00;1.47;;;25.30;65.40;;;;;;4919869;29;20443;-81
2022/05/25 08:59:19;;;;;;;2.40;1.53;;;24.00;73.50;;;;;;4922204;29;20213;-82
2022/05/25 09:01:50;;;;;;;2.63;1.07;;;23.80;72.10;;;;;;4922640;29;21250;-82
2022/05/25 09:04:29;;;;;;;0.90;0.90;;;24.50;71.80;;;;;;4928853;29;20464;-82
2022/05/25 09:07:16;;;;;;;1.87;1.20;;;23.50;64.50;;;;;;4919545;29;20437;-82
2022/05/25 09:09:45;;;;;;;4.03;1.50;;;24.70;66.30;;;;;;4929398;29;20481;-82
2022/05/25 09:12:37;;;;;;;2.07;1.37;;;25.10;65.70;;;;;;4925567;29;20441;-82
2022/05/25 09:15:15;;;;;;;3.20;1.90;;;26.80;66.80;;;;;;4924299;29;20465;-82
2022/05/25 09:17:51;;;;;;;5.00;2.00;;;27.00;61.20;;;;;;4926234;29;20541;-82
2022/05/25 09:20:36;;;;;;;1.97;1.83;;;27.30;58.60;;;;;;4922997;29;21046;-81
2022/05/25 09:23:02;;;;;;;2.27;1.60;;;26.00;59.80;;;;;;4924651;29;20507;-82
2022/05/25 09:25:28;;;;;;;2.30;1.33;;;25.50;63.10;;;;;;4924798;29;20922;-82
2022/05/25 09:28:07;;;;;;;3.03;1.40;;;25.50;61.40;;;;;;4925852;29;20189;-81
2022/05/25 09:30:35;;;;;;;1.43;1.30;;;22.70;62.10;;;;;;4931972;29;20870;-82
2022/05/25 09:33:26;;;;;;;1.60;1.20;;;22.10;68.00;;;;;;4923031;29;20453;-82
2022/05/25 09:35:59;;;;;;;3.57;1.50;;;22.40;67.80;;;;;;4898321;29;20489;-82
2022/05/25 09:38:42;;;;;;;2.33;1.37;;;23.50;65.30;;;;;;4922256;29;20453;-82
2022/05/25 09:41:18;;;;;;;1.70;1.50;;;24.40;63.90;;;;;;4926677;29;20500;-82
2022/05/25 09:43:43;;;;;;;2.40;1.20;;;22.40;63.70;;;;;;4928552;29;20449;-82
2022/05/25 09:46:21;;;;;;;2.13;1.20;;;21.50;68.40;;;;;;4926601;29;20532;-82
2022/05/25 09:48:54;;;;;;;4.63;1.50;;;22.10;71.00;;;;;;4924817;29;20188;-82
2022/05/25 09:51:28;;;;;;;1.93;1.27;;;23.40;72.50;;;;;;4922922;29;20680;-82
2022/05/25 09:54:18;;;;;;;1.63;1.30;;;25.00;64.80;;;;;;4921688;29;20441;-81
2022/05/25 09:56:52;;;;;;;1.40;1.30;;;25.50;62.70;;;;;;4927606;29;20790;-82
2022/05/25 09:59:36;;;;;;;1.53;1.30;;;25.30;59.30;;;;;;4922547;29;20453;-82
2022/05/25 10:02:20;;;;;;;4.13;1.40;;;23.60;62.60;;;;;;4925162;29;20486;-82
2022/05/25 10:04:52;;;;;;;1.67;1.23;;;23.60;65.60;;;;;;4923170;29;20564;-81
2022/05/25 10:07:25;;;;;;;2.90;1.20;;;22.30;69.00;;;;;;4928321;29;20540;-82
2022/05/25 10:09:52;;;;;;;2.13;1.03;;;20.30;66.80;;;;;;4924825;29;20476;-82
2022/05/25 10:12:40;;;;;;;4.50;1.23;;;20.30;67.80;;;;;;4927330;29;20480;-82
2022/05/25 10:15:13;;;;;;;2.30;1.13;;;23.10;78.70;;;;;;4925504;29;20524;-82
2022/05/25 10:17:41;;;;;;;2.87;1.30;;;23.70;72.00;;;;;;4926340;29;20448;-82
2022/05/25 10:20:27;;;;;;;2.37;1.30;;;25.20;64.60;;;;;;4925287;29;20461;-81
2022/05/25 10:23:02;;;;;;;1.53;1.20;;;25.20;66.70;;;;;;4925776;29;20450;-82
2022/05/25 10:25:32;;;;;;;6.33;1.50;;;23.50;59.50;;;;;;4920046;29;20871;-82
2022/05/25 10:28:00;;;;;;;5.37;1.20;;;21.40;64.20;;;;;;4919458;29;20445;-82
2022/05/25 10:39:28;;;;;;;2.27;1.13;;;22.10;66.90;;;;;;4918727;29;20440;-82
2022/05/25 10:42:23;;;;;;;2.50;1.23;;;21.70;68.20;;;;;;4931525;29;20421;-81
2022/05/25 10:45:13;;;;;;;5.17;1.50;;;20.20;68.30;;;;;;4922734;29;20872;-82
2022/05/25 10:47:57;;;;;;;4.43;1.30;;;19.80;75.40;;;;;;4921859;29;21069;-82
2022/05/25 10:50:27;;;;;;;3.83;1.10;;;20.40;77.50;;;;;;4921365;29;20965;-81
2022/05/25 10:53:27;;;;;;;1.43;1.20;;;20.80;73.50;;;;;;4918415;29;21272;-82
2022/05/25 10:56:10;;;;;;;2.20;1.23;;;20.70;72.50;;;;;;4922412;29;20464;-82
2022/05/25 10:59:08;;;;;;;1.20;1.07;;;20.10;71.40;;;;;;4920699;29;20572;-85
2022/05/25 11:01:51;;;;;;;1.60;1.30;;;19.30;71.60;;;;;;4931796;29;20449;-84
2022/05/25 11:04:35;;;;;;;0.87;0.87;;;19.30;72.70;;;;;;4925900;29;20464;-84
2022/05/25 11:07:24;;;;;;;3.90;1.30;;;19.50;78.40;;;;;;4928019;29;20893;-85
2022/05/25 11:09:55;;;;;;;1.47;0.90;;;20.10;68.50;;;;;;4923263;29;20480;-85
2022/05/25 11:12:31;;;;;;;1.03;0.93;;;20.10;69.10;;;;;;4931242;29;21138;-84
2022/05/25 11:15:30;;;;;;;3.40;1.30;;;20.50;72.60;;;;;;4933263;29;20483;-83
2022/05/25 11:18:06;;;;;;;1.30;1.20;;;21.10;76.80;;;;;;4931854;29;20483;-83
2022/05/25 11:20:47;;;;;;;3.07;1.00;;;21.30;67.10;;;;;;4927092;29;20734;-83
2022/05/25 11:23:38;;;;;;;3.27;1.10;;;21.40;72.30;;;;;;4932249;28;20444;-83
2022/05/25 11:26:30;;;;;;;5.13;1.53;;;21.30;64.40;;;;;;4931121;29;20930;-82
2022/05/25 11:29:19;;;;;;;4.07;1.33;;;20.20;69.20;;;;;;4930788;29;20443;-83
2022/05/25 11:31:54;;;;;;;0.90;0.90;;;20.20;70.10;;;;;;4930183;29;20513;-83
2022/05/25 11:34:49;;;;;;;2.10;0.90;;;20.20;70.20;;;;;;4928887;29;21006;-83
2022/05/25 11:37:32;;;;;;;5.40;1.27;;;20.60;75.10;;;;;;4903865;29;20438;-83
2022/05/25 11:40:39;;;;;;;7.23;1.20;;;20.30;68.20;;;;;;4924793;29;20540;-84
2022/05/25 11:43:22;;;;;;;2.60;0.90;;;20.40;69.90;;;;;;4926534;29;20441;-83
2022/05/25 11:46:01;;;;;;;1.90;0.93;;;20.10;63.60;;;;;;4923518;29;20446;-85
2022/05/25 11:48:44;;;;;;;1.57;1.00;;;20.30;72.40;;;;;;4925764;29;20744;-85
2022/05/25 11:51:42;;;;;;;2.23;1.10;;;20.20;68.50;;;;;;4926638;29;20453;-83
2022/05/25 11:54:30;;;;;;;2.60;1.20;;;19.70;67.40;;;;;;4908954;29;20443;-83
2022/05/25 11:57:18;;;;;;;1.17;1.07;;;19.90;68.00;;;;;;4925207;29;20464;-84
2022/05/25 12:00:01;;;;;;;4.13;1.23;;;20.10;70.50;;;;;;4923078;29;20472;-84
2022/05/25 12:02:36;;;;;;;2.63;0.93;;;20.20;68.60;;;;;;4932449;29;20846;-83
2022/05/25 12:05:18;;;;;;;1.40;0.73;;;20.70;73.40;;;;;;4932096;29;20451;-84
2022/05/25 12:08:02;;;;;;;1.47;1.30;;;21.60;71.50;;;;;;4927250;29;20449;-84
2022/05/25 12:10:40;;;;;;;1.93;0.87;;;21.10;66.40;;;;;;4927353;29;20579;-83
2022/05/25 12:13:29;;;;;;;0.80;0.80;;;21.30;68.20;;;;;;4931854;29;20440;-83
2022/05/25 12:16:03;;;;;;;7.90;1.73;;;20.90;69.80;;;;;;4934953;29;20465;-83
2022/05/25 12:19:05;;;;;;;1.57;1.00;;;21.20;71.00;;;;;;4926806;29;20849;-83
2022/05/25 12:21:43;;;;;;;1.40;1.00;;;21.40;69.10;;;;;;4924178;29;20436;-84
2022/05/25 12:24:38;;;;;;;1.20;1.10;;;21.50;72.00;;;;;;4921435;29;20437;-84
2022/05/25 12:27:07;;;;;;;1.77;1.17;;;21.10;67.40;;;;;;4928523;29;20437;-83
2022/05/25 12:29:50;;;;;;;1.23;1.00;;;20.70;70.80;;;;;;4924683;29;20452;-83
2022/05/25 12:32:15;;;;;;;3.43;1.10;;;20.70;70.40;;;;;;4924847;29;20473;-83
2022/05/25 12:34:53;;;;;;;1.20;1.10;;;20.70;71.00;;;;;;4924752;29;20556;-83
2022/05/25 12:37:31;;;;;;;2.53;1.00;;;20.60;74.30;;;;;;4922274;29;20181;-83
2022/05/25 12:40:00;;;;;;;0.93;0.87;;;20.80;72.50;;;;;;4925157;29;21675;-83
2022/05/25 12:42:26;;;;;;;3.13;1.13;;;20.90;75.30;;;;;;4939215;28;20465;-84
2022/05/25 12:50:49;;;;;;;3.70;1.10;;;21.20;66.90;;;;;;4931424;29;20503;-83
2022/05/25 12:53:24;;;;;;;1.17;0.83;;;20.90;69.20;;;;;;4930078;29;20497;-83
2022/05/25 12:56:18;;;;;;;4.47;1.27;;;20.70;72.00;;;;;;4938786;29;20475;-82
2022/05/25 12:58:50;;;;;;;1.23;1.00;;;21.00;75.10;;;;;;4919694;29;20452;-83
2022/05/25 13:01:26;;;;;;;1.13;0.80;;;21.10;72.80;;;;;;4934621;29;20452;-84
2022/05/25 13:03:54;;;;;;;1.93;1.07;;;21.20;74.30;;;;;;4943506;29;20454;-84
2022/05/25 13:06:43;;;;;;;3.20;1.10;;;21.20;70.30;;;;;;4943237;29;20491;-84
2022/05/25 13:09:17;;;;;;;1.73;1.13;;;21.30;71.00;;;;;;4906329;29;20437;-84
2022/05/25 13:11:48;;;;;;;1.73;0.80;;;21.20;70.10;;;;;;4946084;29;20991;-84
2022/05/25 13:14:16;;;;;;;1.30;1.10;;;21.10;73.30;;;;;;4942231;29;20424;-84
2022/05/25 13:16:42;;;;;;;7.53;1.07;;;21.10;76.00;;;;;;4941630;29;20466;-83
2022/05/25 13:19:32;;;;;;;0.80;0.80;;;21.10;63.30;;;;;;4930185;29;20945;-85
2022/05/25 13:22:02;;;;;;;3.03;0.90;;;21.20;64.20;;;;;;4941714;29;20662;-87
2022/05/25 13:24:45;;;;;;;5.43;1.00;;;21.20;65.20;;;;;;4936418;29;20456;-84
2022/05/25 13:27:17;;;;;;;0.93;0.80;;;21.00;66.20;;;;;;4933442;29;20943;-85
2022/05/25 13:30:13;;;;;;;0.93;0.90;;;21.00;63.50;;;;;;4934841;29;20445;-84
2022/05/25 13:32:54;;;;;;;4.57;1.23;;;21.00;66.60;;;;;;4930760;29;20444;-83
2022/05/25 13:35:19;;;;;;;2.63;1.10;;;21.10;67.50;;;;;;4942689;29;21078;-84
2022/05/25 13:38:05;;;;;;;2.07;1.00;;;21.00;67.60;;;;;;4936567;29;20455;-84
2022/05/25 13:40:41;;;;;;;1.23;0.87;;;21.20;67.70;;;;;;4934656;29;20714;-85
2022/05/25 13:43:13;;;;;;;1.10;1.00;;;21.30;66.60;;;;;;4924516;29;20421;-83
2022/05/25 13:45:42;;;;;;;4.30;1.03;;;21.70;65.70;;;;;;4933284;29;20439;-83
2022/05/25 13:48:17;;;;;;;2.00;0.90;;;21.70;67.50;;;;;;4948110;29;21000;-85
2022/05/25 13:50:47;;;;;;;1.90;0.73;;;21.40;65.60;;;;;;4937320;29;20542;-84
2022/05/25 13:53:35;;;;;;;4.00;1.10;;;21.50;68.20;;;;;;4934505;29;20425;-83
2022/05/25 13:56:13;;;;;;;1.90;0.77;;;21.30;66.90;;;;;;4931370;29;20452;-83
2022/05/25 13:58:45;;;;;;;1.03;0.70;;;21.20;66.50;;;;;;4934678;29;20508;-84
2022/05/25 14:01:13;;;;;;;1.80;0.80;;;21.30;64.70;;;;;;4938256;29;20523;-83
2022/05/25 14:03:44;;;;;;;3.20;1.10;;;21.60;67.50;;;;;;4937202;29;20438;-84